Karmel — 9HA2896 — position and weather

sailwx.info

Track history (hours):
 
Tides and Currents Weather Stations Pressure Air Temp Water Temp Dewpoint Dewpoint Depression Visibility Wind Speed Wind Dir Waves Ship Positions

Karmel

Last reported at 2014-Sep-16 23:29 UTC. Time now 2014-Sep-21 00:07 UTC.
Position N 56°09' E 010°13'.

Length 90 m; draft 5 m.

Type: Cargo ship. MMSI: 256632000.

Date/timePositionNaut miles runAvg speedWind from/ knotsBaromVisibWave heightAir tempDewpointWater temp
2014-Sep-16 23:29N 56°09' E 010°13'0 0.0
2014-Sep-16 22:32N 56°09' E 010°13'30 2.5
2014-Sep-16 10:33N 56°06' E 011°06'10 9.8
2014-Sep-16 09:33N 56°07' E 011°24'1010.3
2014-Sep-16 08:33N 56°08' E 011°42'1110.7
2014-Sep-16 07:33N 56°10' E 012°01'1110.8
2014-Sep-16 06:33N 56°10' E 012°20'1212.3
2014-Sep-16 05:33N 56°03' E 012°39'1111.0
2014-Sep-16 04:33N 55°53' E 012°44'1110.8
2014-Sep-16 03:33N 55°42' E 012°41'1110.8
2014-Sep-16 02:33N 55°31' E 012°42'1010.5
2014-Sep-16 01:33N 55°21' E 012°41'10 9.5
2014-Sep-16 00:34N 55°16' E 012°56'1110.8
2014-Sep-15 23:33N 55°16' E 013°15'1510.9
2014-Sep-15 22:10N 55°15' E 013°41'710.7
2014-Sep-15 21:34N 55°14' E 013°53'1110.9
2014-Sep-15 20:33N 55°14' E 014°12'1010.2
2014-Sep-15 19:33N 55°20' E 014°26'1010.3
2014-Sep-15 18:33N 55°27' E 014°40'1110.4
2014-Sep-15 17:33N 55°32' E 014°56'1010.3
2014-Sep-15 16:33N 55°38' E 015°11'  
2014-Sep-09 18:08N 55°05' E 019°19'610.5
2014-Sep-09 17:33N 54°60' E 019°14'1110.6
2014-Sep-09 16:33N 54°50' E 019°06'1010.3
2014-Sep-09 15:33N 54°41' E 018°59'1010.2
2014-Sep-09 14:33N 54°32' E 018°49'10 9.5
2014-Sep-09 13:33N 54°25' E 018°40'1 1.3
2014-Sep-09 12:31N 54°23' E 018°40'0 0.0
2014-Sep-09 11:31N 54°23' E 018°40'0 0.0
2014-Sep-09 10:31N 54°23' E 018°40'0 0.0
2014-Sep-09 09:31N 54°23' E 018°40'0 0.0
2014-Sep-09 08:31N 54°23' E 018°40'0 0.0
2014-Sep-09 07:31N 54°23' E 018°40'0 0.0
2014-Sep-09 06:28N 54°23' E 018°40'0 0.0
2014-Sep-09 05:31N 54°23' E 018°40'0 0.0
2014-Sep-09 04:31N 54°23' E 018°40'0 0.0
2014-Sep-09 03:31N 54°23' E 018°40'0 0.0
2014-Sep-09 02:31N 54°23' E 018°40'0 0.0
2014-Sep-09 01:28N 54°23' E 018°40'0 0.0
2014-Sep-09 00:31N 54°23' E 018°40'0 0.0
2014-Sep-08 23:31N 54°23' E 018°40'0 0.0
2014-Sep-08 22:31N 54°23' E 018°40'0 0.0
2014-Sep-08 21:31N 54°23' E 018°40'0 0.0
2014-Sep-08 20:31N 54°23' E 018°40'0 0.0
2014-Sep-08 19:31N 54°23' E 018°40'0 0.0
2014-Sep-08 18:31N 54°23' E 018°40'0 0.0
2014-Sep-08 17:33N 54°23' E 018°40'0 0.0
2014-Sep-08 16:33N 54°23' E 018°40'0 0.0
2014-Sep-08 15:30N 54°23' E 018°40'0 0.0
2014-Sep-08 14:33N 54°23' E 018°40'0 0.2
2014-Sep-08 13:33N 54°23' E 018°40'0 0.0
2014-Sep-08 12:33N 54°23' E 018°40'0 0.0
2014-Sep-08 11:33N 54°23' E 018°40'0 0.0
2014-Sep-08 10:33N 54°23' E 018°40'0 0.0
2014-Sep-08 09:33N 54°23' E 018°40'0 0.0
2014-Sep-08 08:33N 54°23' E 018°40'0 0.0
2014-Sep-08 07:33N 54°23' E 018°40'0 0.0
2014-Sep-08 06:33N 54°23' E 018°40'0 0.0
2014-Sep-08 05:33N 54°23' E 018°40'0 0.0
2014-Sep-08 04:33N 54°23' E 018°40'0 0.0
2014-Sep-08 03:33N 54°23' E 018°40'0 0.0
2014-Sep-08 02:33N 54°23' E 018°40'0 0.0
2014-Sep-08 01:30N 54°23' E 018°40'0 0.0
2014-Sep-08 00:27N 54°23' E 018°40'0 0.0
2014-Sep-07 23:33N 54°23' E 018°40'0 0.0
2014-Sep-07 21:33N 54°23' E 018°40'0 0.0
2014-Sep-07 20:33N 54°23' E 018°40'0 0.0
2014-Sep-07 19:33N 54°23' E 018°40'0 0.0
2014-Sep-07 18:33N 54°23' E 018°40'0 0.0
2014-Sep-07 17:33N 54°23' E 018°40'0 0.0
2014-Sep-07 16:30N 54°23' E 018°40'0 0.0
2014-Sep-07 15:33N 54°23' E 018°40'0 0.0
2014-Sep-07 14:33N 54°23' E 018°40'0 0.0
2014-Sep-07 13:33N 54°23' E 018°40'0 0.0
2014-Sep-07 12:33N 54°23' E 018°40'0 0.0
2014-Sep-07 11:33N 54°23' E 018°40'0 0.0
2014-Sep-07 10:29N 54°23' E 018°40'0 0.0
2014-Sep-07 09:32N 54°23' E 018°40'0 0.0
2014-Sep-07 08:32N 54°23' E 018°40'0 0.0
2014-Sep-07 07:33N 54°23' E 018°40'0 0.0
2014-Sep-07 06:31N 54°23' E 018°40'0 0.0
2014-Sep-07 05:31N 54°23' E 018°40'0 0.0
2014-Sep-07 04:31N 54°23' E 018°40'0 0.0
2014-Sep-07 03:33N 54°23' E 018°40'0 0.0
2014-Sep-07 02:33N 54°23' E 018°40'0 0.0
2014-Sep-07 01:30N 54°23' E 018°40'0 0.0
2014-Sep-07 00:28N 54°23' E 018°40'0 0.0
2014-Sep-06 23:32N 54°23' E 018°40'  
Track history (hours):
 
Tides and Currents Weather Stations Pressure Air Temp Water Temp Dewpoint Dewpoint Depression Visibility Wind Speed Wind Dir Waves Ship Positions

Karmel

Last reported at 2014-Sep-16 23:29 UTC. Time now 2014-Sep-21 00:07 UTC.
Position N 56°09' E 010°13'.

Length 90 m; draft 5 m.

Type: Cargo ship. MMSI: 256632000.

Date/timePositionNaut miles runAvg speedWind from/ knotsBaromVisibWave heightAir tempDewpointWater temp
2014-Sep-16 23:29N 56°09' E 010°13'0 0.0
2014-Sep-16 22:32N 56°09' E 010°13'30 2.5
2014-Sep-16 10:33N 56°06' E 011°06'10 9.8
2014-Sep-16 09:33N 56°07' E 011°24'1010.3
2014-Sep-16 08:33N 56°08' E 011°42'1110.7
2014-Sep-16 07:33N 56°10' E 012°01'1110.8
2014-Sep-16 06:33N 56°10' E 012°20'1212.3
2014-Sep-16 05:33N 56°03' E 012°39'1111.0
2014-Sep-16 04:33N 55°53' E 012°44'1110.8
2014-Sep-16 03:33N 55°42' E 012°41'1110.8
2014-Sep-16 02:33N 55°31' E 012°42'1010.5
2014-Sep-16 01:33N 55°21' E 012°41'10 9.5
2014-Sep-16 00:34N 55°16' E 012°56'1110.8
2014-Sep-15 23:33N 55°16' E 013°15'1510.9
2014-Sep-15 22:10N 55°15' E 013°41'710.7
2014-Sep-15 21:34N 55°14' E 013°53'1110.9
2014-Sep-15 20:33N 55°14' E 014°12'1010.2
2014-Sep-15 19:33N 55°20' E 014°26'1010.3
2014-Sep-15 18:33N 55°27' E 014°40'1110.4
2014-Sep-15 17:33N 55°32' E 014°56'1010.3
2014-Sep-15 16:33N 55°38' E 015°11'  
2014-Sep-09 18:08N 55°05' E 019°19'610.5
2014-Sep-09 17:33N 54°60' E 019°14'1110.6
2014-Sep-09 16:33N 54°50' E 019°06'1010.3
2014-Sep-09 15:33N 54°41' E 018°59'1010.2
2014-Sep-09 14:33N 54°32' E 018°49'10 9.5
2014-Sep-09 13:33N 54°25' E 018°40'1 1.3
2014-Sep-09 12:31N 54°23' E 018°40'0 0.0
2014-Sep-09 11:31N 54°23' E 018°40'0 0.0
2014-Sep-09 10:31N 54°23' E 018°40'0 0.0
2014-Sep-09 09:31N 54°23' E 018°40'0 0.0
2014-Sep-09 08:31N 54°23' E 018°40'0 0.0
2014-Sep-09 07:31N 54°23' E 018°40'0 0.0
2014-Sep-09 06:28N 54°23' E 018°40'0 0.0
2014-Sep-09 05:31N 54°23' E 018°40'0 0.0
2014-Sep-09 04:31N 54°23' E 018°40'0 0.0
2014-Sep-09 03:31N 54°23' E 018°40'0 0.0
2014-Sep-09 02:31N 54°23' E 018°40'0 0.0
2014-Sep-09 01:28N 54°23' E 018°40'0 0.0
2014-Sep-09 00:31N 54°23' E 018°40'0 0.0
2014-Sep-08 23:31N 54°23' E 018°40'0 0.0
2014-Sep-08 22:31N 54°23' E 018°40'0 0.0
2014-Sep-08 21:31N 54°23' E 018°40'0 0.0
2014-Sep-08 20:31N 54°23' E 018°40'0 0.0
2014-Sep-08 19:31N 54°23' E 018°40'0 0.0
2014-Sep-08 18:31N 54°23' E 018°40'0 0.0
2014-Sep-08 17:33N 54°23' E 018°40'0 0.0
2014-Sep-08 16:33N 54°23' E 018°40'0 0.0
2014-Sep-08 15:30N 54°23' E 018°40'0 0.0
2014-Sep-08 14:33N 54°23' E 018°40'0 0.2
2014-Sep-08 13:33N 54°23' E 018°40'0 0.0
2014-Sep-08 12:33N 54°23' E 018°40'0 0.0
2014-Sep-08 11:33N 54°23' E 018°40'0 0.0
2014-Sep-08 10:33N 54°23' E 018°40'0 0.0
2014-Sep-08 09:33N 54°23' E 018°40'0 0.0
2014-Sep-08 08:33N 54°23' E 018°40'0 0.0
2014-Sep-08 07:33N 54°23' E 018°40'0 0.0
2014-Sep-08 06:33N 54°23' E 018°40'0 0.0
2014-Sep-08 05:33N 54°23' E 018°40'0 0.0
2014-Sep-08 04:33N 54°23' E 018°40'0 0.0
2014-Sep-08 03:33N 54°23' E 018°40'0 0.0
2014-Sep-08 02:33N 54°23' E 018°40'0 0.0
2014-Sep-08 01:30N 54°23' E 018°40'0 0.0
2014-Sep-08 00:27N 54°23' E 018°40'0 0.0
2014-Sep-07 23:33N 54°23' E 018°40'0 0.0
2014-Sep-07 21:33N 54°23' E 018°40'0 0.0
2014-Sep-07 20:33N 54°23' E 018°40'0 0.0
2014-Sep-07 19:33N 54°23' E 018°40'0 0.0
2014-Sep-07 18:33N 54°23' E 018°40'0 0.0
2014-Sep-07 17:33N 54°23' E 018°40'0 0.0
2014-Sep-07 16:30N 54°23' E 018°40'0 0.0
2014-Sep-07 15:33N 54°23' E 018°40'0 0.0
2014-Sep-07 14:33N 54°23' E 018°40'0 0.0
2014-Sep-07 13:33N 54°23' E 018°40'0 0.0
2014-Sep-07 12:33N 54°23' E 018°40'0 0.0
2014-Sep-07 11:33N 54°23' E 018°40'0 0.0
2014-Sep-07 10:29N 54°23' E 018°40'0 0.0
2014-Sep-07 09:32N 54°23' E 018°40'0 0.0
2014-Sep-07 08:32N 54°23' E 018°40'0 0.0
2014-Sep-07 07:33N 54°23' E 018°40'0 0.0
2014-Sep-07 06:31N 54°23' E 018°40'0 0.0
2014-Sep-07 05:31N 54°23' E 018°40'0 0.0
2014-Sep-07 04:31N 54°23' E 018°40'0 0.0
2014-Sep-07 03:33N 54°23' E 018°40'0 0.0
2014-Sep-07 02:33N 54°23' E 018°40'0 0.0
2014-Sep-07 01:30N 54°23' E 018°40'0 0.0
2014-Sep-07 00:28N 54°23' E 018°40'0 0.0
2014-Sep-06 23:32N 54°23' E 018°40'  

Dump ship's entire track history